Ellsworth, ME

2:41 AM EST on January 29, 2015 (GMT -0500)
Hancock County-Bar Harbor | Change Station
CLOSE
Current Station
Airport
Location: Bar Harbor,
Elevation: 82 ft
Nearby Weather Stations
Active Advisory: Winter Storm Watch Active Notice: Record Report

Elev 82 ft 44.45 °N, 68.36 °W | Updated 6 minutes ago

Clear
Clear
1 °F
Feels Like 1 °F
N
0
Wind Variable Wind from North

Today
High -- | Low -- °F
--% Chance of Precip.
Yesterday
High -- | Low -- °F
Precip. -- in
6:55 AM 4:38 PM
Waxing Gibbous, 72% visible
Pressure 30.24 in
Visibility 10.0 miles
Clouds Clear
Dew Point 0 °F
Humidity 92%
Rainfall 0.00 in
Snow Depth Not available.
UV 0 out of 12
Pollen .10 out of 12
Air Quality Not available.
Flu Activity Not available.
METAR KBHB 290735Z 00000KT 10SM CLR M17/M18 A3024 RMK AO1

More Conditions Fewer Conditions

Pressure 30.24 in
Visibility 10.0 miles
Clouds Clear
Dew Point 0 °F
Humidity 92%
Rainfall 0.00 in
Snow Depth Not available.
UV 0 out of 12
Pollen .10 out of 12
Air Quality Not available.
Flu Activity Not available.
METAR KBHB 290735Z 00000KT 10SM CLR M17/M18 A3024 RMK AO1

More Conditions Fewer Conditions

10-Day Weather Forecast

Almanac

Astronomy

Jan. 29, 2015 Rise Set
Actual Time
Civil Twilight
Nautical Twilight
Astronomical Twilight
Moon
Length of Visible Light
Length of Day
Tomorrow will be .
, % of the Moon is Illuminated

Today's Extremes

State Highs State Lows

Community

WunderPhotos

Upload Photos

1,791,387 photos uploaded!

WunderBlogs® & News

Nearby

Air Quality

  Air Quality AQ Index Pollutant
Not available.

Snow Depth

Station Depth Elevation

Earthquake Activity

City Distance Mag. Time & Date
Minimum magnitude displayed is 2.5.

Coastal Water Temperatures

Place Temperature

Nearby Weather Stations